Time;durP1;ratioP1;P1;durP2;ratioP2;P2;SDS_P1;SDS_P2;PMS_P1;PMS_P2;Temp;Humidity;BMP_temperature;BMP_pressure;BME280_temperature;BME280_humidity;BME280_pressure;Samples;Min_cycle;Max_cycle;Signal;HPM_P1;HPM_P2
2023/10/09 00:00:55;;;;;;;25.07;4.67;;;;;;;13.25;82.42;149429.38;5001496;28;20242;-54
2023/10/09 00:03:23;;;;;;;21.07;4.67;;;;;;;13.33;82.40;149448.06;5006170;28;20815;-53
2023/10/09 00:05:53;;;;;;;18.30;4.90;;;;;;;13.22;82.51;149423.16;5004747;28;20313;-52
2023/10/09 00:08:22;;;;;;;25.33;5.27;;;;;;;13.29;82.14;149440.56;5006430;28;20881;-54
2023/10/09 00:10:53;;;;;;;19.87;4.33;;;;;;;13.21;83.28;149420.66;5002298;28;21596;-54
2023/10/09 00:13:23;;;;;;;18.80;4.90;;;;;;;13.12;83.66;149398.19;5009175;28;20338;-55
2023/10/09 00:15:53;;;;;;;21.07;4.03;;;;;;;13.13;84.39;149400.69;5005324;28;20383;-55
2023/10/09 00:18:28;;;;;;;19.27;4.37;;;;;;;13.08;83.97;149389.44;5012617;28;20330;-53
2023/10/09 00:20:55;;;;;;;21.50;4.53;;;;;;;13.01;84.88;149370.75;4985464;28;20713;-54
2023/10/09 00:23:25;;;;;;;22.13;4.17;;;;;;;13.27;81.49;149434.34;4991657;28;20317;-55
2023/10/09 00:26:08;;;;;;;21.30;4.63;;;;;;;13.28;83.91;149436.84;4989498;28;20590;-55
2023/10/09 00:28:36;;;;;;;21.77;4.10;;;;;;;13.19;83.23;149414.38;5003919;28;20287;-53
2023/10/09 00:31:07;;;;;;;23.53;4.23;;;;;;;13.24;83.19;149428.13;5011076;28;20235;-54
2023/10/09 00:33:34;;;;;;;22.67;4.50;;;;;;;13.21;82.63;149420.66;5005665;28;20281;-54
2023/10/09 00:36:09;;;;;;;17.03;3.80;;;;;;;13.13;82.33;149401.91;5007967;28;20232;-55
2023/10/09 00:38:38;;;;;;;28.50;4.30;;;;;;;13.20;83.13;149418.16;4999068;28;20230;-54
2023/10/09 00:41:11;;;;;;;19.60;3.97;;;;;;;13.10;83.00;149394.44;5010938;28;20299;-51
2023/10/09 00:43:43;;;;;;;20.60;4.70;;;;;;;13.19;82.96;149415.66;5007032;28;20352;-53
2023/10/09 00:46:23;;;;;;;27.07;4.60;;;;;;;13.08;83.15;149389.44;5012738;28;20230;-52
2023/10/09 00:48:53;;;;;;;22.60;4.07;;;;;;;13.09;82.91;149390.72;5007835;28;20320;-54
2023/10/09 00:51:22;;;;;;;24.13;4.27;;;;;;;13.02;85.04;149373.25;5011528;28;20241;-55
2023/10/09 00:53:51;;;;;;;17.83;4.13;;;;;;;12.96;84.61;149359.50;5026278;28;20240;-54
2023/10/09 00:56:28;;;;;;;23.93;4.30;;;;;;;13.04;84.81;149378.22;5008093;28;20344;-52
2023/10/09 00:59:08;;;;;;;21.10;4.20;;;;;;;12.98;86.02;149365.75;5020801;28;20238;-54
2023/10/09 01:01:38;;;;;;;21.67;3.90;;;;;;;12.90;85.27;149344.53;5008250;28;20769;-55
2023/10/09 01:04:14;;;;;;;19.30;4.50;;;;;;;12.91;84.75;149348.28;5010048;28;20225;-53
2023/10/09 01:06:44;;;;;;;19.97;4.57;;;;;;;12.87;86.51;149338.31;5003616;28;20217;-52
2023/10/09 01:09:14;;;;;;;22.07;4.73;;;;;;;12.85;85.41;149333.31;5043816;28;20620;-54
2023/10/09 01:11:48;;;;;;;16.40;3.83;;;;;;;12.79;85.00;149318.34;5007155;28;20233;-53
2023/10/09 01:14:15;;;;;;;23.67;4.40;;;;;;;12.77;85.58;149313.38;4996759;28;20230;-54
2023/10/09 01:16:44;;;;;;;28.90;5.00;;;;;;;12.85;85.74;149333.31;5008803;28;20229;-53
2023/10/09 01:19:20;;;;;;;20.73;5.07;;;;;;;12.82;85.91;149325.84;5025970;28;20244;-52
2023/10/09 01:21:48;;;;;;;21.67;4.30;;;;;;;12.77;85.81;149313.38;5008286;28;20610;-52
2023/10/09 01:24:19;;;;;;;27.53;4.77;;;;;;;12.70;86.02;149297.16;5010471;28;20290;-54
2023/10/09 01:26:47;;;;;;;31.57;4.87;;;;;;;12.66;86.63;149288.41;5007169;28;20226;-54
2023/10/09 01:29:16;;;;;;;20.03;3.97;;;;;;;12.55;87.51;149262.25;5010846;28;20348;-54
2023/10/09 01:31:54;;;;;;;21.17;4.63;;;;;;;12.53;86.67;149257.25;5028991;28;20280;-54
2023/10/09 01:34:26;;;;;;;26.80;5.47;;;;;;;12.61;86.81;149274.72;5046251;28;20243;-53
2023/10/09 01:36:55;;;;;;;31.67;4.53;;;;;;;12.72;85.19;149302.13;5011193;28;20247;-52
2023/10/09 01:39:27;;;;;;;24.13;4.17;;;;;;;12.66;86.28;149287.19;5008934;28;20253;-52
2023/10/09 01:41:59;;;;;;;26.07;4.53;;;;;;;12.58;87.40;149267.25;5028397;28;20233;-54
2023/10/09 01:44:30;;;;;;;15.23;4.30;;;;;;;12.56;87.26;149263.47;5010977;28;20230;-52
2023/10/09 01:46:58;;;;;;;28.87;5.47;;;;;;;12.60;87.37;149272.22;5013234;28;20245;-53
2023/10/09 01:49:31;;;;;;;18.03;3.50;;;;;;;12.55;87.53;149260.97;4989337;28;20304;-52
2023/10/09 01:52:02;;;;;;;23.80;5.93;;;;;;;12.65;85.85;149284.69;4999699;28;20234;-52
2023/10/09 01:54:40;;;;;;;29.97;5.60;;;;;;;12.75;85.59;149308.38;4993363;28;20296;-52
2023/10/09 01:57:10;;;;;;;24.40;4.27;;;;;;;12.68;85.72;149292.19;4992625;28;20304;-53
2023/10/09 01:59:38;;;;;;;19.90;3.70;;;;;;;12.65;86.30;149284.69;4990942;28;20566;-52
2023/10/09 02:02:24;;;;;;;21.20;4.47;;;;;;;12.71;85.84;149299.66;4995161;28;20228;-54
2023/10/09 02:04:52;;;;;;;16.57;4.03;;;;;;;12.74;85.90;149305.88;4994008;28;20220;-52
2023/10/09 02:07:27;;;;;;;20.77;3.90;;;;;;;12.69;86.22;149294.69;4999673;28;20230;-52
2023/10/09 02:09:56;;;;;;;22.10;4.67;;;;;;;12.68;85.37;149292.19;4987895;28;20773;-52
2023/10/09 02:12:23;;;;;;;28.40;4.93;;;;;;;12.70;85.72;149298.41;4992218;28;20256;-54
2023/10/09 02:14:53;;;;;;;17.63;4.13;;;;;;;12.67;85.55;149289.69;4992305;28;20238;-52
2023/10/09 02:17:24;;;;;;;20.00;4.00;;;;;;;12.72;84.86;149300.88;4996754;28;20233;-52
2023/10/09 02:19:52;;;;;;;16.10;4.10;;;;;;;12.90;85.02;149345.78;5000434;28;20310;-52
2023/10/09 02:22:19;;;;;;;17.97;3.97;;;;;;;12.85;85.72;149334.53;5001772;28;20227;-54
2023/10/09 02:24:57;;;;;;;22.07;4.83;;;;;;;12.84;84.35;149330.81;4987327;28;20236;-52
2023/10/09 02:27:46;;;;;;;27.23;5.10;;;;;;;12.93;84.78;149353.28;4991591;28;20223;-52
2023/10/09 02:30:26;;;;;;;24.90;4.40;;;;;;;13.01;84.16;149371.97;5012370;28;20229;-53
2023/10/09 02:33:06;;;;;;;17.77;4.63;;;;;;;12.95;84.04;149358.28;4987024;28;20236;-53
2023/10/09 02:35:37;;;;;;;22.13;3.77;;;;;;;12.93;84.84;149353.28;4990368;28;20698;-52
2023/10/09 02:38:08;;;;;;;26.70;4.00;;;;;;;12.96;83.75;149359.50;4992247;28;20239;-52
2023/10/09 02:41:00;;;;;;;20.63;4.13;;;;;;;12.93;83.57;149353.28;4989189;28;20239;-54
2023/10/09 02:43:30;;;;;;;20.07;4.20;;;;;;;12.95;84.16;149357.00;5009488;28;20281;-54
2023/10/09 02:45:57;;;;;;;19.03;3.97;;;;;;;12.97;82.21;149362.00;5011595;28;20257;-54
2023/10/09 02:48:27;;;;;;;20.97;4.33;;;;;;;13.05;82.66;149380.72;5011804;28;20249;-55
2023/10/09 02:50:54;;;;;;;19.43;4.33;;;;;;;13.04;82.53;149379.44;5010301;28;20317;-55
2023/10/09 02:53:29;;;;;;;24.77;4.33;;;;;;;13.27;82.98;149435.56;5006363;28;20229;-53
2023/10/09 02:56:12;;;;;;;22.60;4.87;;;;;;;13.24;82.60;149428.13;4986801;28;20229;-52
2023/10/09 02:58:40;;;;;;;21.47;4.80;;;;;;;13.23;82.01;149424.38;4992861;28;20266;-54
2023/10/09 03:04:14;;;;;;;16.77;3.80;;;;;;;13.28;80.82;149438.06;5692575;23;20574;-64
2023/10/09 03:06:49;;;;;;;20.40;4.07;;;;;;;13.30;81.16;149441.84;4963828;28;20251;-64
2023/10/09 03:09:17;;;;;;;25.07;4.70;;;;;;;13.53;78.28;149496.78;4973370;28;20693;-64
2023/10/09 03:11:48;;;;;;;19.77;4.07;;;;;;;13.46;79.45;149480.53;4972463;28;20260;-65
2023/10/09 03:14:16;;;;;;;20.00;3.80;;;;;;;13.48;80.81;149484.31;4960029;28;20236;-65
2023/10/09 03:16:48;;;;;;;25.47;5.03;;;;;;;13.43;82.09;149474.31;4922952;28;20365;-65
2023/10/09 03:19:14;;;;;;;15.77;3.50;;;;;;;13.39;82.25;149463.03;4940552;29;20236;-65
2023/10/09 03:21:41;;;;;;;27.50;4.23;;;;;;;13.37;83.45;149458.03;4940001;28;20227;-65
2023/10/09 03:24:09;;;;;;;22.03;4.33;;;;;;;13.36;83.27;149456.81;4938298;28;20593;-65
2023/10/09 03:26:35;;;;;;;23.53;3.90;;;;;;;13.35;84.46;149454.31;4935938;29;20251;-65
2023/10/09 03:29:06;;;;;;;20.60;4.10;;;;;;;13.36;83.74;149456.81;4951326;28;20710;-65
2023/10/09 03:31:34;;;;;;;19.98;4.35;;;;;;;13.41;82.94;149468.00;5226782;23;20448;-57
2023/10/09 03:34:02;;;;;;;19.63;4.87;;;;;;;13.47;83.04;149483.03;4939408;28;20577;-56
2023/10/09 03:36:30;;;;;;;23.90;4.50;;;;;;;13.43;83.05;149473.06;4940641;28;20612;-56
2023/10/09 03:38:57;;;;;;;24.57;4.30;;;;;;;13.48;83.67;149484.31;4958255;28;20244;-56
2023/10/09 03:41:26;;;;;;;18.37;3.70;;;;;;;13.42;83.38;149471.84;4957459;28;20244;-57
2023/10/09 03:43:54;;;;;;;15.63;3.53;;;;;;;13.56;83.65;149504.28;4947813;28;20269;-57
2023/10/09 03:46:22;;;;;;;17.70;3.97;;;;;;;13.55;83.98;149501.78;4951024;28;20227;-55
2023/10/09 03:48:51;;;;;;;23.60;3.87;;;;;;;13.56;84.30;149504.28;4948105;28;20331;-57
2023/10/09 03:51:21;;;;;;;18.83;4.23;;;;;;;13.57;85.33;149508.00;4950728;28;20246;-57
2023/10/09 03:53:48;;;;;;;14.20;3.63;;;;;;;13.56;85.66;149504.28;4958504;28;20722;-56
2023/10/09 03:56:16;;;;;;;23.67;4.33;;;;;;;13.63;84.73;149521.75;4952744;28;20229;-57
2023/10/09 03:58:45;;;;;;;19.00;3.70;;;;;;;13.63;85.53;149520.47;4953958;28;20235;-55
2023/10/09 04:01:21;;;;;;;14.67;3.17;;;;;;;13.60;84.47;149513.00;4953255;28;20259;-57
2023/10/09 04:03:49;;;;;;;27.87;4.70;;;;;;;13.69;85.35;149536.72;4949554;28;20225;-57
2023/10/09 04:06:17;;;;;;;17.83;5.13;;;;;;;13.66;84.94;149529.25;4953091;28;20241;-57
2023/10/09 04:08:48;;;;;;;16.47;3.60;;;;;;;13.72;85.32;149542.94;4963747;28;20228;-57
2023/10/09 04:11:22;;;;;;;24.70;3.63;;;;;;;13.71;85.28;149540.44;4954819;28;20310;-57
2023/10/09 04:13:49;;;;;;;16.27;3.27;;;;;;;13.71;85.73;149540.44;4951673;28;20246;-57
2023/10/09 04:16:34;;;;;;;14.27;4.93;;;;;;;13.79;83.38;149559.16;4954860;28;20232;-54
2023/10/09 04:19:06;;;;;;;17.67;4.27;;;;;;;13.78;83.26;149556.69;4950895;28;20256;-57
2023/10/09 04:21:36;;;;;;;17.77;5.07;;;;;;;13.86;80.24;149576.63;4950653;28;20228;-57
2023/10/09 04:26:46;;;;;;;17.37;3.87;;;;;;;13.91;80.17;149589.09;4944209;28;20560;-56
2023/10/09 04:29:18;;;;;;;19.43;4.30;;;;;;;13.98;82.28;149606.56;4955321;28;20243;-57
2023/10/09 04:31:51;;;;;;;16.73;3.97;;;;;;;13.93;81.54;149594.09;4949744;28;20236;-56
2023/10/09 04:34:23;;;;;;;22.60;4.50;;;;;;;13.93;81.11;149592.88;4954470;28;20235;-56
2023/10/09 04:36:49;;;;;;;14.63;4.30;;;;;;;13.95;79.71;149597.88;4948504;28;20236;-57
2023/10/09 04:39:34;;;;;;;22.47;4.57;;;;;;;13.94;80.49;149596.59;4954771;28;20320;-55
2023/10/09 04:45:19;;;;;;;17.03;3.37;;;;;;;13.86;82.19;149576.63;4879731;29;20238;-54
2023/10/09 04:47:57;;;;;;;25.77;3.70;;;;;;;13.85;83.83;149575.41;4885751;29;20257;-58
2023/10/09 04:50:45;;;;;;;15.80;4.17;;;;;;;13.82;84.73;149567.91;4931295;28;20237;-59
2023/10/09 04:53:23;;;;;;;14.07;3.70;;;;;;;13.81;84.65;149565.41;4949052;28;20291;-58
2023/10/09 04:55:57;;;;;;;14.20;3.73;;;;;;;13.91;82.96;149587.88;4951457;28;20236;-59
2023/10/09 04:58:25;;;;;;;21.37;4.13;;;;;;;13.94;84.26;149596.59;4953506;28;20713;-59
2023/10/09 05:01:12;;;;;;;15.03;3.27;;;;;;;13.92;84.48;149591.59;4953357;28;20233;-59
2023/10/09 05:03:45;;;;;;;14.20;3.23;;;;;;;13.86;85.14;149577.88;4954997;28;20699;-59
2023/10/09 05:06:42;;;;;;;18.03;4.03;;;;;;;13.93;83.93;149592.88;4952808;28;20333;-59
2023/10/09 05:09:14;;;;;;;19.07;4.17;;;;;;;13.86;85.92;149577.88;4955193;28;20230;-59
2023/10/09 05:12:09;;;;;;;19.07;2.97;;;;;;;13.83;84.80;149570.41;4952668;28;20236;-59
2023/10/09 05:14:45;;;;;;;22.70;4.33;;;;;;;13.82;85.99;149566.63;4947155;28;20672;-59
2023/10/09 05:17:15;;;;;;;15.97;3.70;;;;;;;13.75;86.05;149549.22;4954414;28;20576;-59
2023/10/09 05:19:54;;;;;;;17.50;4.10;;;;;;;13.69;87.68;149536.72;4951625;28;20270;-58
2023/10/09 05:22:36;;;;;;;17.57;3.93;;;;;;;13.67;86.85;149530.47;4959003;28;20655;-59
2023/10/09 05:25:14;;;;;;;22.67;4.43;;;;;;;13.64;87.57;149522.97;4954802;28;20757;-59
2023/10/09 05:27:50;;;;;;;21.40;3.90;;;;;;;13.54;87.83;149499.28;4949797;28;20713;-58
2023/10/09 05:30:26;;;;;;;28.20;4.33;;;;;;;13.56;87.61;149504.28;4955299;28;20357;-58
2023/10/09 05:32:58;;;;;;;18.47;4.30;;;;;;;13.56;86.16;149505.50;4950255;28;20236;-58
2023/10/09 05:35:39;;;;;;;18.83;3.53;;;;;;;13.61;86.44;149515.50;4952190;28;20239;-58
2023/10/09 05:38:23;;;;;;;15.80;3.63;;;;;;;13.62;86.87;149519.25;4949667;28;20252;-56
2023/10/09 05:40:53;;;;;;;23.70;4.00;;;;;;;13.54;87.41;149500.50;4949320;28;23172;-57
2023/10/09 05:46:15;;;;;;;29.63;4.37;;;;;;;13.46;88.66;149480.53;4941982;28;20313;-58
2023/10/09 05:48:54;;;;;;;25.53;3.80;;;;;;;13.50;88.16;149489.31;4941848;28;20230;-62
2023/10/09 05:54:23;;;;;;;21.17;4.30;;;;;;;13.52;89.33;149494.28;4950205;28;20595;-57
2023/10/09 06:05:40;;;;;;;20.07;4.23;;;;;;;13.53;89.74;149496.78;4943376;28;20982;-57
2023/10/09 06:08:06;;;;;;;22.50;4.30;;;;;;;13.60;88.69;149513.00;4951803;28;20320;-58
2023/10/09 06:10:40;;;;;;;15.73;3.33;;;;;;;13.63;89.59;149521.75;4949961;28;20300;-57
2023/10/09 06:13:15;;;;;;;27.07;4.40;;;;;;;13.74;88.76;149547.94;4953674;28;20239;-57
2023/10/09 06:18:34;;;;;;;25.20;4.40;;;;;;;13.79;89.54;149559.16;4949971;28;20883;-58
2023/10/09 06:21:07;;;;;;;21.87;3.77;;;;;;;13.82;89.33;149567.91;4954326;28;20250;-57
2023/10/09 06:26:26;;;;;;;14.10;4.13;;;;;;;13.93;88.70;149592.88;4956568;28;20228;-58
2023/10/09 06:29:13;;;;;;;16.70;4.03;;;;;;;13.98;89.66;149605.34;4953643;28;20751;-57
2023/10/09 06:31:59;;;;;;;19.48;4.22;;;;;;;14.07;90.31;149626.56;4955988;28;20557;-58
2023/10/09 06:34:32;;;;;;;16.13;3.63;;;;;;;14.10;89.12;149634.03;4958622;28;20242;-58
2023/10/09 06:37:05;;;;;;;18.33;4.20;;;;;;;14.17;89.52;149651.53;4955598;28;20853;-55
2023/10/09 06:42:33;;;;;;;17.83;4.50;;;;;;;14.38;87.27;149701.47;4960181;28;20245;-58
2023/10/09 06:45:06;;;;;;;21.97;4.03;;;;;;;14.50;86.45;149730.16;4953755;28;20323;-59
2023/10/09 06:47:40;;;;;;;17.80;4.27;;;;;;;14.59;86.00;149753.91;4950657;28;20230;-58
2023/10/09 06:50:24;;;;;;;28.50;5.10;;;;;;;14.72;88.46;149783.94;4954720;28;20240;-58
2023/10/09 06:55:48;;;;;;;21.03;4.17;;;;;;;14.95;86.85;149838.81;4951065;28;20233;-59
2023/10/09 06:58:22;;;;;;;17.07;3.90;;;;;;;15.07;86.11;149868.81;4958171;28;20317;-59
2023/10/09 07:03:54;;;;;;;15.10;3.63;;;;;;;15.17;86.03;149892.56;4952676;28;20245;-59
2023/10/09 07:06:23;;;;;;;13.00;3.67;;;;;;;15.29;85.32;149922.53;4956263;28;20237;-59
2023/10/09 07:09:15;;;;;;;17.27;4.30;;;;;;;15.45;85.48;149961.25;4950877;28;20324;-58
2023/10/09 07:15:01;;;;;;;23.80;4.23;;;;;;;15.89;81.74;150066.28;4952373;28;20255;-59
2023/10/09 07:17:21;;;;;;;19.13;3.67;;;;;;;16.12;81.88;150122.50;4952296;28;20234;-58
2023/10/09 07:22:39;;;;;;;17.77;4.73;;;;;;;16.57;78.12;150229.94;4954981;28;20238;-57
2023/10/09 07:25:14;;;;;;;25.13;3.80;;;;;;;16.78;77.12;150282.47;4955214;28;20229;-58
2023/10/09 07:27:45;;;;;;;16.77;3.50;;;;;;;16.89;77.54;150307.47;4953959;28;20233;-58
2023/10/09 07:32:55;;;;;;;19.33;3.87;;;;;;;16.98;79.90;150330.03;4952520;28;20602;-58
2023/10/09 07:35:46;;;;;;;18.60;3.50;;;;;;;16.95;79.13;150322.47;4969285;28;20245;-58
2023/10/09 07:38:19;;;;;;;22.90;3.97;;;;;;;17.01;80.80;150337.53;4951923;28;20274;-59
2023/10/09 07:40:59;;;;;;;14.17;3.23;;;;;;;17.05;81.56;150346.25;4952617;28;20256;-58
2023/10/09 07:43:35;;;;;;;12.57;3.20;;;;;;;17.08;81.17;150353.78;4956456;28;20322;-58
2023/10/09 07:48:52;;;;;;;25.73;4.43;;;;;;;16.88;84.02;150306.25;4953039;28;20244;-58
2023/10/09 07:51:22;;;;;;;21.50;4.00;;;;;;;16.91;84.47;150313.75;4955050;28;20688;-58
2023/10/09 07:53:56;;;;;;;18.40;4.17;;;;;;;17.06;82.46;150350.03;4952583;28;20244;-58
2023/10/09 07:56:24;;;;;;;19.27;4.13;;;;;;;17.11;82.11;150361.28;4954928;28;20697;-58
2023/10/09 07:58:51;;;;;;;22.47;4.10;;;;;;;17.25;81.99;150395.06;4956710;28;20239;-59
2023/10/09 08:01:35;;;;;;;17.67;4.93;;;;;;;17.36;80.13;150421.31;4956282;28;20244;-58
2023/10/09 08:04:10;;;;;;;20.87;4.73;;;;;;;17.27;80.26;150400.06;4949094;28;20332;-59
2023/10/09 08:06:42;;;;;;;18.67;4.50;;;;;;;17.31;79.52;150408.81;4950579;28;20236;-57
2023/10/09 08:09:28;;;;;;;17.80;4.50;;;;;;;17.43;75.80;150437.59;4952459;28;20243;-58
2023/10/09 08:14:45;;;;;;;16.70;4.10;;;;;;;17.51;74.57;150457.56;4951088;28;20308;-59
2023/10/09 08:17:15;;;;;;;14.67;4.17;;;;;;;17.58;75.40;150475.06;4952643;28;20319;-59
2023/10/09 08:19:53;;;;;;;18.57;4.37;;;;;;;17.60;75.66;150478.84;4951853;28;20842;-58
2023/10/09 08:25:07;;;;;;;21.70;5.60;;;;;;;17.73;76.28;150511.38;4954888;28;20247;-59
2023/10/09 08:27:54;;;;;;;18.13;4.47;;;;;;;17.87;76.09;150545.13;4952564;28;20393;-58
2023/10/09 08:30:40;;;;;;;18.03;4.23;;;;;;;18.05;75.09;150587.72;4971489;28;20733;-59
2023/10/09 08:36:01;;;;;;;14.03;3.70;;;;;;;18.42;75.58;150679.06;4949495;28;20239;-58
2023/10/09 08:38:33;;;;;;;24.03;5.00;;;;;;;18.63;74.27;150729.13;4953804;28;20892;-59
2023/10/09 08:41:15;;;;;;;25.17;5.00;;;;;;;18.91;74.17;150795.47;4952893;28;20243;-57
2023/10/09 08:43:50;;;;;;;27.83;4.43;;;;;;;18.90;71.62;150794.22;4951463;28;20227;-58
2023/10/09 08:46:20;;;;;;;18.87;4.30;;;;;;;19.13;69.90;150850.59;4956877;28;20242;-58
2023/10/09 08:48:48;;;;;;;26.47;5.40;;;;;;;19.15;68.21;150855.59;4952938;28;20707;-57
2023/10/09 08:51:18;;;;;;;30.80;5.03;;;;;;;19.14;67.59;150853.09;4956145;28;20252;-58
2023/10/09 08:53:45;;;;;;;21.57;5.33;;;;;;;18.74;67.76;150756.66;4949663;28;20699;-58
2023/10/09 08:56:15;;;;;;;19.47;4.80;;;;;;;18.93;69.73;150801.75;4951381;28;20720;-58
2023/10/09 08:58:42;;;;;;;24.23;4.93;;;;;;;18.92;67.12;150799.25;4953930;28;20312;-59
2023/10/09 09:01:11;;;;;;;19.90;4.27;;;;;;;18.73;69.06;150754.16;4952424;28;20229;-58
2023/10/09 09:03:43;;;;;;;17.80;4.73;;;;;;;18.87;68.26;150787.94;4950002;28;20600;-59
2023/10/09 09:06:14;;;;;;;21.40;4.70;;;;;;;18.87;68.58;150787.94;4952480;28;20231;-58
2023/10/09 09:08:44;;;;;;;23.00;5.73;;;;;;;18.89;66.79;150791.72;4950766;28;20707;-59
2023/10/09 09:11:13;;;;;;;20.53;5.07;;;;;;;18.84;68.97;150780.44;4952877;28;20230;-56
2023/10/09 09:13:42;;;;;;;24.57;4.93;;;;;;;18.74;69.50;150756.66;4948428;28;20224;-58
2023/10/09 09:16:16;;;;;;;25.37;5.13;;;;;;;19.02;68.83;150823.06;4952962;28;20233;-59
2023/10/09 09:19:00;;;;;;;17.73;5.10;;;;;;;19.12;69.34;150846.81;4964692;28;20684;-59
2023/10/09 09:21:29;;;;;;;15.53;5.07;;;;;;;19.31;69.42;150894.41;4955963;28;20233;-59
2023/10/09 09:23:57;;;;;;;22.60;6.57;;;;;;;19.15;70.74;150855.59;4952147;28;20228;-57
2023/10/09 09:26:38;;;;;;;25.87;6.17;;;;;;;19.27;69.32;150884.38;4952390;28;20222;-58
2023/10/09 09:29:08;;;;;;;20.60;5.40;;;;;;;19.75;69.43;150999.59;4950162;28;20263;-58
2023/10/09 09:31:38;;;;;;;26.83;6.30;;;;;;;19.47;69.34;150931.97;4946944;28;20292;-59
2023/10/09 09:34:13;;;;;;;20.40;5.63;;;;;;;19.96;70.92;151049.75;4972823;23;20281;-64
2023/10/09 09:36:59;;;;;;;18.53;5.53;;;;;;;20.15;69.76;151096.09;4968712;28;20225;-66
2023/10/09 09:39:29;;;;;;;19.17;5.37;;;;;;;20.26;66.35;151122.38;4970815;28;20209;-66
2023/10/09 09:42:03;;;;;;;25.87;5.23;;;;;;;20.31;67.59;151134.91;4976369;28;20702;-64
2023/10/09 09:44:43;;;;;;;19.57;5.20;;;;;;;20.35;65.00;151144.94;4988738;28;20400;-65
2023/10/09 09:47:12;;;;;;;31.77;5.03;;;;;;;20.37;70.81;151149.94;4991778;28;20332;-67
2023/10/09 09:49:41;;;;;;;35.70;5.40;;;;;;;20.33;68.89;151141.19;4990849;28;20220;-65
2023/10/09 09:52:11;;;;;;;21.30;4.93;;;;;;;20.57;65.80;151197.56;4993066;28;20595;-65
2023/10/09 09:54:38;;;;;;;20.73;4.67;;;;;;;20.75;65.28;151241.41;4991159;28;20277;-65
2023/10/09 09:57:10;;;;;;;18.23;5.23;;;;;;;20.96;66.12;151292.84;4984442;28;20876;-65
2023/10/09 09:59:50;;;;;;;18.13;3.57;;;;;;;21.20;59.59;151350.50;4991041;28;20697;-61
2023/10/09 10:02:23;;;;;;;25.17;4.03;;;;;;;21.53;55.50;151431.97;4996973;28;20229;-64
2023/10/09 10:04:56;;;;;;;22.10;3.70;;;;;;;21.76;49.96;151485.91;4993159;28;20730;-63
2023/10/09 10:07:25;;;;;;;18.63;4.30;;;;;;;22.04;50.44;151554.88;4995320;28;20627;-61
2023/10/09 10:09:57;;;;;;;22.73;3.20;;;;;;;22.21;48.93;151595.00;4991429;28;20236;-65
2023/10/09 10:13:01;;;;;;;23.10;3.70;;;;;;;22.45;53.65;151652.75;4995859;28;20230;-63
2023/10/09 10:16:00;;;;;;;19.30;4.63;;;;;;;22.79;53.66;151735.56;4988272;28;20236;-63
2023/10/09 10:18:32;;;;;;;18.33;4.67;;;;;;;22.88;53.83;151756.84;4989588;28;20278;-64
2023/10/09 10:21:15;;;;;;;18.80;4.53;;;;;;;23.08;53.58;151807.06;4990955;28;20245;-64
2023/10/09 10:23:47;;;;;;;20.53;4.27;;;;;;;23.29;51.48;151857.28;4992254;28;20233;-64
2023/10/09 10:26:25;;;;;;;21.23;4.40;;;;;;;23.24;53.06;151845.97;4994112;28;20252;-64
2023/10/09 10:29:22;;;;;;;27.30;4.83;;;;;;;23.43;52.37;151891.16;4988924;28;20266;-64
2023/10/09 10:31:56;;;;;;;21.17;4.50;;;;;;;23.49;53.62;151904.94;4987604;28;20326;-63
2023/10/09 10:34:24;;;;;;;17.17;3.97;;;;;;;23.70;53.32;151957.66;4991787;28;20951;-65
2023/10/09 10:36:58;;;;;;;18.93;4.40;;;;;;;23.81;53.08;151984.03;4991744;28;20236;-62
2023/10/09 10:42:33;;;;;;;15.23;3.97;;;;;;;23.93;52.44;152012.88;4977052;28;20238;-63
2023/10/09 10:45:02;;;;;;;21.53;4.93;;;;;;;24.00;52.99;152030.50;4992308;28;20333;-64
2023/10/09 10:47:33;;;;;;;24.03;4.47;;;;;;;23.86;51.87;151995.31;4995721;28;20228;-63
2023/10/09 10:50:20;;;;;;;20.30;4.43;;;;;;;23.82;50.76;151986.56;4988844;28;20253;-64
2023/10/09 10:52:57;;;;;;;19.17;5.30;;;;;;;23.70;52.45;151956.44;4988599;28;20236;-63
2023/10/09 10:58:34;;;;;;;19.63;4.80;;;;;;;23.74;51.62;151966.47;4992826;28;20224;-63
2023/10/09 11:01:11;;;;;;;25.17;4.40;;;;;;;23.78;53.12;151976.50;4990344;28;20243;-62
2023/10/09 11:03:54;;;;;;;21.80;4.20;;;;;;;23.83;52.30;151989.06;4990166;28;20238;-63
2023/10/09 11:06:35;;;;;;;15.70;3.87;;;;;;;24.15;51.99;152066.91;4991528;28;20278;-62
2023/10/09 11:09:09;;;;;;;25.33;4.30;;;;;;;24.41;46.65;152128.41;4991348;28;20314;-60
2023/10/09 11:11:46;;;;;;;20.47;4.07;;;;;;;24.47;48.48;152144.75;4987255;28;20577;-59
2023/10/09 11:14:15;;;;;;;18.70;3.93;;;;;;;24.53;48.65;152158.53;4994029;28;20587;-64
2023/10/09 11:16:48;;;;;;;20.73;4.53;;;;;;;24.37;47.39;152119.63;4989464;28;20229;-61
2023/10/09 11:19:32;;;;;;;20.03;4.53;;;;;;;24.51;45.79;152153.50;4995826;28;20237;-63
2023/10/09 11:22:24;;;;;;;22.70;5.23;;;;;;;24.46;44.31;152140.97;4989578;28;20759;-61
2023/10/09 11:25:00;;;;;;;19.40;4.33;;;;;;;24.34;43.43;152110.88;4989975;28;20234;-63
2023/10/09 11:27:32;;;;;;;21.07;5.60;;;;;;;24.36;48.14;152117.13;4977014;28;20206;-64
2023/10/09 11:30:09;;;;;;;28.90;4.23;;;;;;;24.53;44.09;152157.31;4977050;28;20246;-65
2023/10/09 11:32:40;;;;;;;21.87;3.90;;;;;;;24.77;44.16;152216.34;4977142;28;20585;-65
2023/10/09 11:35:14;;;;;;;23.33;4.17;;;;;;;24.45;40.63;152138.44;4981010;28;20696;-65
2023/10/09 11:37:42;;;;;;;21.53;3.70;;;;;;;24.53;41.24;152158.53;4973955;28;20219;-65
2023/10/09 11:40:32;;;;;;;23.97;4.23;;;;;;;24.74;44.46;152210.09;4939372;28;20240;-65
2023/10/09 11:43:03;;;;;;;22.37;4.73;;;;;;;24.82;44.83;152228.91;4975755;28;20274;-63
2023/10/09 11:45:30;;;;;;;19.57;3.87;;;;;;;24.84;43.29;152233.94;4953277;28;20778;-64
2023/10/09 11:47:57;;;;;;;17.07;3.60;;;;;;;24.77;42.67;152216.34;4978017;28;20242;-64
2023/10/09 11:50:43;;;;;;;31.70;4.57;;;;;;;24.73;40.38;152206.31;4978474;28;20571;-64
2023/10/09 11:53:19;;;;;;;29.10;4.13;;;;;;;24.75;41.68;152211.34;4987795;28;20326;-64
2023/10/09 11:55:48;;;;;;;24.70;5.17;;;;;;;24.58;47.73;152171.09;4980148;28;20229;-64
2023/10/09 11:58:22;;;;;;;23.43;3.90;;;;;;;24.55;41.41;152163.56;4976663;28;20232;-64
2023/10/09 12:00:51;;;;;;;20.93;5.07;;;;;;;24.60;43.28;152174.88;4983730;28;20235;-64
2023/10/09 12:03:23;;;;;;;15.43;4.40;;;;;;;24.61;44.95;152178.63;4978041;28;20240;-64
2023/10/09 12:05:49;;;;;;;19.43;4.23;;;;;;;24.64;45.46;152183.66;4981143;28;21733;-65
2023/10/09 12:08:16;;;;;;;22.80;4.67;;;;;;;24.58;49.13;152171.09;4978794;28;20230;-63
2023/10/09 12:10:43;;;;;;;21.70;3.80;;;;;;;24.66;45.31;152188.69;4980032;28;20232;-64
2023/10/09 12:13:11;;;;;;;19.57;3.83;;;;;;;24.59;45.52;152172.38;4980643;28;20398;-64
2023/10/09 12:15:39;;;;;;;27.90;4.27;;;;;;;24.61;45.09;152178.63;4976980;28;20236;-63
2023/10/09 12:18:14;;;;;;;18.13;3.97;;;;;;;24.56;45.78;152166.06;4980556;28;20241;-62
2023/10/09 12:20:41;;;;;;;25.57;4.20;;;;;;;24.42;51.75;152132.19;4976962;28;20308;-64
2023/10/09 12:23:13;;;;;;;29.67;5.03;;;;;;;24.19;50.53;152075.72;4977366;28;20238;-65
2023/10/09 12:25:39;;;;;;;25.00;4.00;;;;;;;24.07;47.94;152045.56;4990219;28;20230;-65
2023/10/09 12:28:09;;;;;;;26.00;4.20;;;;;;;24.18;47.45;152073.19;4968241;28;20236;-65
2023/10/09 12:30:39;;;;;;;27.33;5.37;;;;;;;24.16;47.43;152068.19;4987198;28;20254;-65
2023/10/09 12:33:08;;;;;;;21.90;4.23;;;;;;;24.14;47.15;152063.16;4978531;28;20231;-64
2023/10/09 12:35:37;;;;;;;28.97;4.70;;;;;;;24.03;46.10;152036.78;4978522;28;20324;-64
2023/10/09 12:38:08;;;;;;;19.53;4.00;;;;;;;24.28;50.18;152097.03;4980797;28;20232;-64
2023/10/09 12:40:35;;;;;;;24.37;4.13;;;;;;;24.11;46.97;152056.84;4973586;28;20301;-64
2023/10/09 12:43:02;;;;;;;16.37;3.60;;;;;;;24.25;47.75;152089.50;4975104;28;20336;-64
2023/10/09 12:45:32;;;;;;;23.87;4.20;;;;;;;24.43;44.52;152134.69;4981438;28;20227;-64
2023/10/09 12:48:02;;;;;;;26.53;4.90;;;;;;;24.54;42.95;152161.06;4942722;28;20222;-65